Aviation Digital Data Service (ADDS)

Output produced by METARs form (1145 UTC 22 August 2014)
found at http://aviationweather.gov/adds/metars/
 
KGNV 221120Z 2212/2312 VRB03KT P6SM SCT120 BKN250 
     FM222000 27005KT P6SM VCTS SCT040CB 
     FM230000 23003KT P6SM SCT250